Airfield :
LOGIN :

Register | Disclaimer

   EN    FR    IT 

 










Legend :    VFR   Marginal VFR   IFR   Intensive IFR   Very Intensive IFR
Visi :
Ceiling :
>= 8 km
>= 3000ft
5 to 8 km
1000 to 3000 ft
1500m to 5 km
500 to 1000 ft
800 to 1500m
200 to 500 ft
< 800m
< 200 ft
Symbols :   Thunderstorms  Fog  Heavy snow  Heavy precipitations  Wind > 20 kt
SIGMETs :     Misc.  Thunderstorms  Icing  Turbulence  Mountain Waves  Volcanic Ashes






- Airport Elevation : 220 ft
- IATA code : CWL


EGFF - Cardiff Rhoose

CURRENT METAR :
  • 191620Z AUTO 27013KT 9999 SCT028 BKN033 19/12 Q1017

EXPIRED METARs :
  • 191550Z 28013KT 9999 FEW028 20/12 Q1017
  • 191520Z AUTO 28013KT 9999 FEW028 SCT037 BKN044 19/10 Q1017
  • 191450Z AUTO 28014KT 9999 FEW033 OVC042 18/12 Q1017
  • 191420Z AUTO 27014KT 9999 NCD 20/11 Q1017
  • 191350Z AUTO 26015KT 240V300 9999 FEW037 20/11 Q1017

TAF TAF EGFF
Valid from the 19 at 12:00 until the 20 at 12:00 UTC


191053Z 1912/2012 26008KT 9999 SCT035
PROB30
TEMPO 1912/2003 8000 -SHRA
PROB40
TEMPO 2003/2011 7000 SHRA BKN014
PROB30
TEMPO 2003/2010 4000 RADZ BKN009
ATIS : +44 1446 729 319



MET'MAP, your aeronautical weather chart ! - Copyright ORBIFLY December 2007 - Disclaimer

ORBIFLY MET'MAP TEAM :

Programming & Development : Alexandra Zaïnal
Original concept : Baudouin d'Aumeries
Technical & hardware support : Manuel Goepfert
Assistance : Marc-Olivier Méhu




SOURCES & CREDITS :

   NOAA